sensor_id;sensor_type;location;lat;lon;timestamp;pressure;altitude;pressure_sealevel;temperature;humidity
19600;BME280;9947;57.722;12.012;2023-02-22T00:01:25;101279.53;;;-2.39;100.00
19600;BME280;9947;57.722;12.012;2023-02-22T00:04:00;101275.16;;;-2.42;100.00
19600;BME280;9947;57.722;12.012;2023-02-22T00:06:34;101273.50;;;-2.47;100.00
19600;BME280;9947;57.722;12.012;2023-02-22T00:09:01;101272.63;;;-2.48;100.00
19600;BME280;9947;57.722;12.012;2023-02-22T00:11:35;101283.84;;;-2.31;100.00
19600;BME280;9947;57.722;12.012;2023-02-22T00:14:03;101290.06;;;-2.35;100.00
19600;BME280;9947;57.722;12.012;2023-02-22T00:16:38;101286.22;;;-2.15;100.00
19600;BME280;9947;57.722;12.012;2023-02-22T00:19:05;101277.28;;;-2.08;100.00
19600;BME280;9947;57.722;12.012;2023-02-22T00:21:39;101289.44;;;-1.95;100.00
19600;BME280;9947;57.722;12.012;2023-02-22T00:24:12;101281.56;;;-2.00;100.00
19600;BME280;9947;57.722;12.012;2023-02-22T00:26:50;101281.59;;;-2.01;100.00
19600;BME280;9947;57.722;12.012;2023-02-22T00:29:20;101280.69;;;-2.00;100.00
19600;BME280;9947;57.722;12.012;2023-02-22T00:31:55;101275.47;;;-2.03;100.00
19600;BME280;9947;57.722;12.012;2023-02-22T00:34:22;101276.38;;;-2.04;100.00
19600;BME280;9947;57.722;12.012;2023-02-22T00:36:56;101284.44;;;-2.13;100.00
19600;BME280;9947;57.722;12.012;2023-02-22T00:39:27;101284.47;;;-2.17;100.00
19600;BME280;9947;57.722;12.012;2023-02-22T00:42:01;101290.44;;;-2.02;100.00
19600;BME280;9947;57.722;12.012;2023-02-22T00:44:29;101277.91;;;-1.93;100.00
19600;BME280;9947;57.722;12.012;2023-02-22T00:47:04;101283.50;;;-2.08;100.00
19600;BME280;9947;57.722;12.012;2023-02-22T00:49:31;101278.25;;;-2.12;100.00
19600;BME280;9947;57.722;12.012;2023-02-22T00:52:05;101279.19;;;-2.17;100.00
19600;BME280;9947;57.722;12.012;2023-02-22T00:54:39;101273.84;;;-2.13;100.00
19600;BME280;9947;57.722;12.012;2023-02-22T00:57:12;101266.75;;;-2.11;100.00
19600;BME280;9947;57.722;12.012;2023-02-22T00:59:39;101265.16;;;-2.22;100.00
19600;BME280;9947;57.722;12.012;2023-02-22T01:02:13;101266.22;;;-2.32;100.00
19600;BME280;9947;57.722;12.012;2023-02-22T01:04:40;101265.44;;;-2.40;100.00
19600;BME280;9947;57.722;12.012;2023-02-22T01:07:14;101266.53;;;-2.53;100.00
19600;BME280;9947;57.722;12.012;2023-02-22T01:09:41;101276.34;;;-2.60;100.00
19600;BME280;9947;57.722;12.012;2023-02-22T01:12:15;101277.22;;;-2.62;100.00
19600;BME280;9947;57.722;12.012;2023-02-22T01:14:41;101274.66;;;-2.67;100.00
19600;BME280;9947;57.722;12.012;2023-02-22T01:17:16;101275.47;;;-2.60;100.00
19600;BME280;9947;57.722;12.012;2023-02-22T01:19:43;101273.75;;;-2.66;100.00
19600;BME280;9947;57.722;12.012;2023-02-22T01:22:23;101272.06;;;-2.71;100.00
19600;BME280;9947;57.722;12.012;2023-02-22T01:24:53;101276.41;;;-2.67;100.00
19600;BME280;9947;57.722;12.012;2023-02-22T01:27:27;101271.94;;;-2.64;100.00
19600;BME280;9947;57.722;12.012;2023-02-22T01:29:53;101266.66;;;-2.64;100.00
19600;BME280;9947;57.722;12.012;2023-02-22T01:32:34;101271.94;;;-2.62;100.00
19600;BME280;9947;57.722;12.012;2023-02-22T01:35:11;101272.88;;;-2.66;100.00
19600;BME280;9947;57.722;12.012;2023-02-22T01:37:45;101272.00;;;-2.67;100.00
19600;BME280;9947;57.722;12.012;2023-02-22T01:40:16;101271.97;;;-2.65;100.00
19600;BME280;9947;57.722;12.012;2023-02-22T01:42:58;101280.00;;;-2.71;100.00
19600;BME280;9947;57.722;12.012;2023-02-22T01:45:44;101278.28;;;-2.74;100.00
19600;BME280;9947;57.722;12.012;2023-02-22T01:48:24;101279.16;;;-2.73;100.00
19600;BME280;9947;57.722;12.012;2023-02-22T01:51:02;101277.34;;;-2.71;100.00
19600;BME280;9947;57.722;12.012;2023-02-22T01:53:44;101280.03;;;-2.73;100.00
19600;BME280;9947;57.722;12.012;2023-02-22T01:56:20;101272.91;;;-2.68;100.00
19600;BME280;9947;57.722;12.012;2023-02-22T01:58:52;101278.09;;;-2.62;100.00
19600;BME280;9947;57.722;12.012;2023-02-22T02:01:27;101269.13;;;-2.50;100.00
19600;BME280;9947;57.722;12.012;2023-02-22T02:03:58;101275.41;;;-2.57;100.00
19600;BME280;9947;57.722;12.012;2023-02-22T02:06:33;101278.94;;;-2.58;100.00
19600;BME280;9947;57.722;12.012;2023-02-22T02:09:07;101267.41;;;-2.53;100.00
19600;BME280;9947;57.722;12.012;2023-02-22T02:11:42;101276.88;;;-2.39;100.00
19600;BME280;9947;57.722;12.012;2023-02-22T02:14:16;101281.38;;;-2.43;100.00
19600;BME280;9947;57.722;12.012;2023-02-22T02:16:45;101284.00;;;-2.43;100.00
19600;BME280;9947;57.722;12.012;2023-02-22T02:19:27;101284.91;;;-2.44;100.00
19600;BME280;9947;57.722;12.012;2023-02-22T02:22:16;101286.00;;;-2.57;100.00
19600;BME280;9947;57.722;12.012;2023-02-22T02:34:39;101287.03;;;-2.70;100.00
19600;BME280;9947;57.722;12.012;2023-02-22T02:37:22;101287.97;;;-2.73;100.00
19600;BME280;9947;57.722;12.012;2023-02-22T02:39:58;101285.22;;;-2.67;100.00
19600;BME280;9947;57.722;12.012;2023-02-22T02:42:41;101295.03;;;-2.73;100.00
19600;BME280;9947;57.722;12.012;2023-02-22T02:45:16;101286.25;;;-2.77;100.00
19600;BME280;9947;57.722;12.012;2023-02-22T02:47:53;101286.25;;;-2.77;100.00
19600;BME280;9947;57.722;12.012;2023-02-22T02:50:27;101283.59;;;-2.75;100.00
19600;BME280;9947;57.722;12.012;2023-02-22T02:53:05;101277.53;;;-2.84;100.00
19600;BME280;9947;57.722;12.012;2023-02-22T02:55:34;101273.06;;;-2.80;100.00
19600;BME280;9947;57.722;12.012;2023-02-22T02:58:16;101268.72;;;-2.84;100.00
19600;BME280;9947;57.722;12.012;2023-02-22T03:00:45;101271.34;;;-2.83;100.00
19600;BME280;9947;57.722;12.012;2023-02-22T03:03:50;101272.97;;;-2.72;100.00
19600;BME280;9947;57.722;12.012;2023-02-22T03:07:00;101272.28;;;-2.88;100.00
19600;BME280;9947;57.722;12.012;2023-02-22T03:09:44;101277.56;;;-2.88;100.00
19600;BME280;9947;57.722;12.012;2023-02-22T03:12:34;101274.97;;;-2.91;100.00
19600;BME280;9947;57.722;12.012;2023-02-22T03:15:18;101278.50;;;-2.91;100.00
19600;BME280;9947;57.722;12.012;2023-02-22T03:18:00;101273.25;;;-2.94;100.00
19600;BME280;9947;57.722;12.012;2023-02-22T03:20:40;101279.38;;;-2.90;100.00
19600;BME280;9947;57.722;12.012;2023-02-22T03:23:23;101282.03;;;-2.92;100.00
19600;BME280;9947;57.722;12.012;2023-02-22T03:25:56;101279.28;;;-2.83;100.00
19600;BME280;9947;57.722;12.012;2023-02-22T03:28:32;101272.25;;;-2.87;100.00
19600;BME280;9947;57.722;12.012;2023-02-22T03:31:12;101277.53;;;-2.84;100.00
19600;BME280;9947;57.722;12.012;2023-02-22T03:33:43;101278.44;;;-2.88;100.00
19600;BME280;9947;57.722;12.012;2023-02-22T03:36:21;101273.81;;;-2.70;100.00
19600;BME280;9947;57.722;12.012;2023-02-22T03:39:00;101279.22;;;-2.78;100.00
19600;BME280;9947;57.722;12.012;2023-02-22T03:41:33;101273.78;;;-2.69;100.00
19600;BME280;9947;57.722;12.012;2023-02-22T03:44:11;101272.13;;;-2.74;100.00
19600;BME280;9947;57.722;12.012;2023-02-22T03:46:41;101261.47;;;-2.71;100.00
19600;BME280;9947;57.722;12.012;2023-02-22T03:49:22;101259.72;;;-2.71;100.00
19600;BME280;9947;57.722;12.012;2023-02-22T03:51:56;101265.94;;;-2.73;100.00
19600;BME280;9947;57.722;12.012;2023-02-22T03:54:25;101250.81;;;-2.67;100.00
19600;BME280;9947;57.722;12.012;2023-02-22T03:57:04;101260.50;;;-2.66;100.00
19600;BME280;9947;57.722;12.012;2023-02-22T03:59:32;101258.72;;;-2.64;100.00
19600;BME280;9947;57.722;12.012;2023-02-22T04:02:06;101257.50;;;-2.41;100.00
19600;BME280;9947;57.722;12.012;2023-02-22T04:04:33;101261.00;;;-2.39;100.00
19600;BME280;9947;57.722;12.012;2023-02-22T04:07:07;101254.66;;;-2.28;100.00
19600;BME280;9947;57.722;12.012;2023-02-22T04:09:41;101260.69;;;-2.20;100.00
19600;BME280;9947;57.722;12.012;2023-02-22T04:12:15;101259.69;;;-2.12;100.00
19600;BME280;9947;57.722;12.012;2023-02-22T04:14:48;101262.13;;;-1.99;100.00
19600;BME280;9947;57.722;12.012;2023-02-22T04:17:22;101269.13;;;-1.95;100.00
19600;BME280;9947;57.722;12.012;2023-02-22T04:19:49;101267.31;;;-1.93;100.00
19600;BME280;9947;57.722;12.012;2023-02-22T04:22:22;101277.91;;;-1.93;100.00
19600;BME280;9947;57.722;12.012;2023-02-22T04:24:50;101279.53;;;-1.84;100.00
19600;BME280;9947;57.722;12.012;2023-02-22T04:27:30;101279.56;;;-1.86;100.00
19600;BME280;9947;57.722;12.012;2023-02-22T04:29:58;101273.28;;;-1.80;100.00
19600;BME280;9947;57.722;12.012;2023-02-22T04:32:32;101273.25;;;-1.77;100.00
19600;BME280;9947;57.722;12.012;2023-02-22T04:34:59;101279.38;;;-1.75;100.00
19600;BME280;9947;57.722;12.012;2023-02-22T04:37:32;101281.91;;;-1.67;100.00
19600;BME280;9947;57.722;12.012;2023-02-22T04:40:01;101278.41;;;-1.69;100.00
19600;BME280;9947;57.722;12.012;2023-02-22T04:42:35;101277.63;;;-1.74;100.00
19600;BME280;9947;57.722;12.012;2023-02-22T04:45:03;101278.38;;;-1.68;100.00
19600;BME280;9947;57.722;12.012;2023-02-22T04:47:41;101265.91;;;-1.63;100.00
19600;BME280;9947;57.722;12.012;2023-02-22T04:50:10;101274.91;;;-1.71;100.00
19600;BME280;9947;57.722;12.012;2023-02-22T04:52:44;101267.72;;;-1.66;100.00
19600;BME280;9947;57.722;12.012;2023-02-22T04:55:13;101276.69;;;-1.72;100.00
19600;BME280;9947;57.722;12.012;2023-02-22T04:57:48;101282.91;;;-1.74;100.00
19600;BME280;9947;57.722;12.012;2023-02-22T05:00:22;101277.63;;;-1.74;100.00
19600;BME280;9947;57.722;12.012;2023-02-22T05:02:56;101277.59;;;-1.73;100.00
19600;BME280;9947;57.722;12.012;2023-02-22T05:05:32;101279.34;;;-1.73;100.00
19600;BME280;9947;57.722;12.012;2023-02-22T05:08:06;101274.88;;;-1.70;100.00
19600;BME280;9947;57.722;12.012;2023-02-22T05:10:34;101266.75;;;-1.61;100.00
19600;BME280;9947;57.722;12.012;2023-02-22T05:13:08;101267.72;;;-1.65;100.00
19600;BME280;9947;57.722;12.012;2023-02-22T05:15:41;101272.22;;;-1.70;100.00
19600;BME280;9947;57.722;12.012;2023-02-22T05:18:15;101259.88;;;-1.71;100.00
19600;BME280;9947;57.722;12.012;2023-02-22T05:20:42;101258.81;;;-1.62;100.00
19600;BME280;9947;57.722;12.012;2023-02-22T05:23:18;101267.69;;;-1.63;100.00
19600;BME280;9947;57.722;12.012;2023-02-22T05:25:46;101267.69;;;-1.63;100.00
19600;BME280;9947;57.722;12.012;2023-02-22T05:28:20;101268.44;;;-1.57;100.00
19600;BME280;9947;57.722;12.012;2023-02-22T05:30:47;101259.63;;;-1.59;100.00
19600;BME280;9947;57.722;12.012;2023-02-22T05:33:21;101265.88;;;-1.61;100.00
19600;BME280;9947;57.722;12.012;2023-02-22T05:35:54;101264.03;;;-1.58;100.00
19600;BME280;9947;57.722;12.012;2023-02-22T05:38:27;101257.81;;;-1.57;100.00
19600;BME280;9947;57.722;12.012;2023-02-22T05:41:02;101256.19;;;-1.64;100.00
19600;BME280;9947;57.722;12.012;2023-02-22T05:43:29;101260.63;;;-1.64;100.00
19600;BME280;9947;57.722;12.012;2023-02-22T05:46:03;101264.94;;;-1.59;100.00
19600;BME280;9947;57.722;12.012;2023-02-22T05:48:37;101261.47;;;-1.62;100.00
19600;BME280;9947;57.722;12.012;2023-02-22T05:51:16;101269.34;;;-1.58;100.00
19600;BME280;9947;57.722;12.012;2023-02-22T05:53:50;101276.25;;;-1.47;100.00
19600;BME280;9947;57.722;12.012;2023-02-22T05:56:22;101275.47;;;-1.54;100.00
19600;BME280;9947;57.722;12.012;2023-02-22T05:58:56;101278.97;;;-1.52;100.00
19600;BME280;9947;57.722;12.012;2023-02-22T06:01:26;101287.69;;;-1.45;100.00
19600;BME280;9947;57.722;12.012;2023-02-22T06:04:05;101291.16;;;-1.42;100.00
19600;BME280;9947;57.722;12.012;2023-02-22T06:06:33;101289.53;;;-1.49;100.00
19600;BME280;9947;57.722;12.012;2023-02-22T06:09:07;101287.75;;;-1.48;100.00
19600;BME280;9947;57.722;12.012;2023-02-22T06:11:41;101288.81;;;-1.60;100.00
19600;BME280;9947;57.722;12.012;2023-02-22T06:14:08;101306.44;;;-1.54;100.00
19600;BME280;9947;57.722;12.012;2023-02-22T06:16:42;101298.53;;;-1.59;100.00
19600;BME280;9947;57.722;12.012;2023-02-22T06:19:09;101303.94;;;-1.65;100.00
19600;BME280;9947;57.722;12.012;2023-02-22T06:21:48;101301.38;;;-1.70;100.00
19600;BME280;9947;57.722;12.012;2023-02-22T06:24:21;101303.22;;;-1.73;100.00
19600;BME280;9947;57.722;12.012;2023-02-22T06:26:58;101314.63;;;-1.70;100.00
19600;BME280;9947;57.722;12.012;2023-02-22T06:29:27;101310.31;;;-1.75;100.00
19600;BME280;9947;57.722;12.012;2023-02-22T06:32:00;101314.69;;;-1.73;100.00
19600;BME280;9947;57.722;12.012;2023-02-22T06:34:36;101309.44;;;-1.76;100.00
19600;BME280;9947;57.722;12.012;2023-02-22T06:37:05;101313.84;;;-1.75;100.00
19600;BME280;9947;57.722;12.012;2023-02-22T06:39:39;101315.59;;;-1.74;100.00
19600;BME280;9947;57.722;12.012;2023-02-22T06:42:14;101315.50;;;-1.69;100.00
19600;BME280;9947;57.722;12.012;2023-02-22T06:44:47;101317.97;;;-1.59;100.00
19600;BME280;9947;57.722;12.012;2023-02-22T06:47:21;101319.72;;;-1.56;100.00
19600;BME280;9947;57.722;12.012;2023-02-22T06:49:51;101319.72;;;-1.56;100.00
19600;BME280;9947;57.722;12.012;2023-02-22T06:52:25;101324.91;;;-1.50;100.00
19600;BME280;9947;57.722;12.012;2023-02-22T06:54:52;101326.59;;;-1.46;100.00
19600;BME280;9947;57.722;12.012;2023-02-22T06:57:34;101323.84;;;-1.41;100.00
19600;BME280;9947;57.722;12.012;2023-02-22T07:00:01;101320.28;;;-1.40;100.00
19600;BME280;9947;57.722;12.012;2023-02-22T07:02:34;101322.94;;;-1.40;100.00
19600;BME280;9947;57.722;12.012;2023-02-22T07:05:09;101330.00;;;-1.39;100.00
19600;BME280;9947;57.722;12.012;2023-02-22T07:07:36;101326.38;;;-1.35;100.00
19600;BME280;9947;57.722;12.012;2023-02-22T07:10:08;101316.63;;;-1.33;100.00
19600;BME280;9947;57.722;12.012;2023-02-22T07:12:48;101319.16;;;-1.26;100.00
19600;BME280;9947;57.722;12.012;2023-02-22T07:15:22;101318.16;;;-1.20;100.00
19600;BME280;9947;57.722;12.012;2023-02-22T07:17:57;101326.81;;;-1.12;100.00
19600;BME280;9947;57.722;12.012;2023-02-22T07:20:27;101324.31;;;-1.19;100.00
19600;BME280;9947;57.722;12.012;2023-02-22T07:23:01;101330.41;;;-1.14;100.00
19600;BME280;9947;57.722;12.012;2023-02-22T07:25:28;101329.56;;;-1.16;100.00
19600;BME280;9947;57.722;12.012;2023-02-22T07:28:03;101333.13;;;-1.17;100.00
19600;BME280;9947;57.722;12.012;2023-02-22T07:30:36;101326.63;;;-1.01;100.00
19600;BME280;9947;57.722;12.012;2023-02-22T07:33:11;101334.38;;;-0.90;100.00
19600;BME280;9947;57.722;12.012;2023-02-22T07:35:45;101342.22;;;-0.86;100.00
19600;BME280;9947;57.722;12.012;2023-02-22T07:38:20;101332.38;;;-0.81;100.00
19600;BME280;9947;57.722;12.012;2023-02-22T07:40:53;101338.47;;;-0.74;100.00
19600;BME280;9947;57.722;12.012;2023-02-22T07:43:28;101337.63;;;-0.76;100.00
19600;BME280;9947;57.722;12.012;2023-02-22T07:45:58;101327.66;;;-0.65;100.00
19600;BME280;9947;57.722;12.012;2023-02-22T07:48:32;101338.03;;;-0.54;100.00
19600;BME280;9947;57.722;12.012;2023-02-22T07:50:59;101337.25;;;-0.59;100.00
19600;BME280;9947;57.722;12.012;2023-02-22T07:53:34;101344.03;;;-0.45;100.00
19600;BME280;9947;57.722;12.012;2023-02-22T07:56:03;101343.03;;;-0.39;100.00
19600;BME280;9947;57.722;12.012;2023-02-22T07:58:45;101344.66;;;-0.34;100.00
19600;BME280;9947;57.722;12.012;2023-02-22T08:01:12;101344.25;;;-0.55;100.00
19600;BME280;9947;57.722;12.012;2023-02-22T08:03:45;101343.31;;;-0.53;100.00
19600;BME280;9947;57.722;12.012;2023-02-22T08:06:18;101348.16;;;-0.32;100.00
19600;BME280;9947;57.722;12.012;2023-02-22T08:08:54;101335.88;;;-0.37;100.00
19600;BME280;9947;57.722;12.012;2023-02-22T08:11:28;101346.22;;;-0.23;100.00
19600;BME280;9947;57.722;12.012;2023-02-22T08:14:02;101352.53;;;-0.29;100.00
19600;BME280;9947;57.722;12.012;2023-02-22T08:16:42;101343.00;;;-0.01;100.00
19600;BME280;9947;57.722;12.012;2023-02-22T08:19:10;101343.00;;;-0.01;100.00
19600;BME280;9947;57.722;12.012;2023-02-22T08:21:43;101344.31;;;0.19;100.00
19600;BME280;9947;57.722;12.012;2023-02-22T08:24:10;101336.66;;;0.07;100.00
19600;BME280;9947;57.722;12.012;2023-02-22T08:26:44;101342.94;;;0.04;100.00
19600;BME280;9947;57.722;12.012;2023-02-22T08:29:19;101337.09;;;0.24;100.00
19600;BME280;9947;57.722;12.012;2023-02-22T08:31:49;101346.75;;;0.29;100.00
19600;BME280;9947;57.722;12.012;2023-02-22T08:34:23;101349.53;;;0.59;100.00
19600;BME280;9947;57.722;12.012;2023-02-22T08:36:56;101343.19;;;0.65;100.00
19600;BME280;9947;57.722;12.012;2023-02-22T08:39:23;101343.47;;;0.54;100.00
19600;BME280;9947;57.722;12.012;2023-02-22T08:41:57;101335.56;;;0.49;100.00
19600;BME280;9947;57.722;12.012;2023-02-22T08:44:32;101330.16;;;0.54;100.00
19600;BME280;9947;57.722;12.012;2023-02-22T08:47:06;101340.28;;;0.40;100.00
19600;BME280;9947;57.722;12.012;2023-02-22T08:49:33;101336.94;;;0.32;100.00
19600;BME280;9947;57.722;12.012;2023-02-22T08:52:10;101347.56;;;0.32;100.00
19600;BME280;9947;57.722;12.012;2023-02-22T08:54:37;101341.09;;;0.42;100.00
19600;BME280;9947;57.722;12.012;2023-02-22T08:57:10;101351.56;;;0.48;100.00
19600;BME280;9947;57.722;12.012;2023-02-22T08:59:39;101344.88;;;0.67;100.00
19600;BME280;9947;57.722;12.012;2023-02-22T09:02:14;101340.22;;;0.41;100.00
19600;BME280;9947;57.722;12.012;2023-02-22T09:04:41;101339.53;;;0.35;100.00
19600;BME280;9947;57.722;12.012;2023-02-22T09:07:16;101341.16;;;0.40;100.00
19600;BME280;9947;57.722;12.012;2023-02-22T09:09:43;101336.34;;;0.54;100.00
19600;BME280;9947;57.722;12.012;2023-02-22T09:12:20;101342.22;;;0.67;100.00
19600;BME280;9947;57.722;12.012;2023-02-22T09:14:48;101338.78;;;0.96;100.00
19600;BME280;9947;57.722;12.012;2023-02-22T09:17:22;101344.53;;;0.81;100.00
19600;BME280;9947;57.722;12.012;2023-02-22T09:19:51;101342.78;;;0.80;100.00
19600;BME280;9947;57.722;12.012;2023-02-22T09:22:25;101338.00;;;0.92;100.00
19600;BME280;9947;57.722;12.012;2023-02-22T09:24:52;101334.47;;;1.23;100.00
19600;BME280;9947;57.722;12.012;2023-02-22T09:27:25;101330.72;;;1.30;100.00
19600;BME280;9947;57.722;12.012;2023-02-22T09:29:55;101332.16;;;1.42;100.00
19600;BME280;9947;57.722;12.012;2023-02-22T09:32:28;101339.59;;;1.29;100.00
19600;BME280;9947;57.722;12.012;2023-02-22T09:34:56;101339.72;;;1.55;100.00
19600;BME280;9947;57.722;12.012;2023-02-22T09:37:29;101334.28;;;1.29;100.00
19600;BME280;9947;57.722;12.012;2023-02-22T09:39:56;101329.34;;;1.46;100.00
19600;BME280;9947;57.722;12.012;2023-02-22T09:42:43;101333.94;;;1.71;100.00
19600;BME280;9947;57.722;12.012;2023-02-22T09:45:21;101330.97;;;1.50;100.00
19600;BME280;9947;57.722;12.012;2023-02-22T09:47:57;101328.78;;;1.65;100.00
19600;BME280;9947;57.722;12.012;2023-02-22T09:50:38;101330.59;;;1.64;100.00
19600;BME280;9947;57.722;12.012;2023-02-22T09:53:21;101326.66;;;1.76;100.00
19600;BME280;9947;57.722;12.012;2023-02-22T09:55:58;101331.69;;;1.57;100.00
19600;BME280;9947;57.722;12.012;2023-02-22T09:58:38;101325.56;;;1.83;100.00
19600;BME280;9947;57.722;12.012;2023-02-22T10:01:18;101336.97;;;1.88;100.00
19600;BME280;9947;57.722;12.012;2023-02-22T10:04:03;101335.78;;;1.97;100.00
19600;BME280;9947;57.722;12.012;2023-02-22T10:06:38;101336.56;;;2.00;100.00
19600;BME280;9947;57.722;12.012;2023-02-22T10:09:09;101340.59;;;2.13;100.00
19600;BME280;9947;57.722;12.012;2023-02-22T10:11:49;101349.66;;;2.36;100.00
19600;BME280;9947;57.722;12.012;2023-02-22T10:14:50;101338.13;;;2.34;100.00
19600;BME280;9947;57.722;12.012;2023-02-22T10:17:33;101344.38;;;2.59;100.00
19600;BME280;9947;57.722;12.012;2023-02-22T10:20:10;101334.69;;;2.57;100.00
19600;BME280;9947;57.722;12.012;2023-02-22T10:22:56;101334.63;;;2.58;100.00
19600;BME280;9947;57.722;12.012;2023-02-22T10:25:30;101334.78;;;2.54;100.00
19600;BME280;9947;57.722;12.012;2023-02-22T10:28:12;101328.19;;;2.39;100.00
19600;BME280;9947;57.722;12.012;2023-02-22T10:30:57;101327.09;;;2.44;100.00
19600;BME280;9947;57.722;12.012;2023-02-22T10:33:40;101332.38;;;2.46;100.00
19600;BME280;9947;57.722;12.012;2023-02-22T10:36:24;101327.19;;;2.68;100.00
19600;BME280;9947;57.722;12.012;2023-02-22T10:39:03;101315.81;;;2.63;100.00
19600;BME280;9947;57.722;12.012;2023-02-22T10:41:44;101323.34;;;2.50;100.00
19600;BME280;9947;57.722;12.012;2023-02-22T10:44:21;101323.25;;;2.53;100.00
19600;BME280;9947;57.722;12.012;2023-02-22T10:46:58;101328.59;;;2.53;100.00
19600;BME280;9947;57.722;12.012;2023-02-22T10:49:31;101322.94;;;2.62;100.00
19600;BME280;9947;57.722;12.012;2023-02-22T10:52:12;101326.50;;;2.88;100.00
19600;BME280;9947;57.722;12.012;2023-02-22T10:54:50;101330.94;;;3.12;100.00
19600;BME280;9947;57.722;12.012;2023-02-22T10:57:25;101322.63;;;2.96;100.00
19600;BME280;9947;57.722;12.012;2023-02-22T10:59:53;101315.72;;;2.91;100.00
19600;BME280;9947;57.722;12.012;2023-02-22T11:02:29;101317.50;;;3.15;100.00
19600;BME280;9947;57.722;12.012;2023-02-22T11:04:59;101310.06;;;3.23;100.00
19600;BME280;9947;57.722;12.012;2023-02-22T11:07:34;101307.88;;;3.09;100.00
19600;BME280;9947;57.722;12.012;2023-02-22T11:10:03;101305.88;;;3.16;100.00
19600;BME280;9947;57.722;12.012;2023-02-22T11:12:39;101304.28;;;3.10;100.00
19600;BME280;9947;57.722;12.012;2023-02-22T11:15:25;101304.88;;;3.19;100.00
19600;BME280;9947;57.722;12.012;2023-02-22T11:18:21;101296.28;;;3.34;100.00
19600;BME280;9947;57.722;12.012;2023-02-22T11:20:58;101295.13;;;3.41;100.00
19600;BME280;9947;57.722;12.012;2023-02-22T11:23:33;101297.63;;;3.22;100.00
19600;BME280;9947;57.722;12.012;2023-02-22T11:26:07;101292.03;;;3.52;100.00
19600;BME280;9947;57.722;12.012;2023-02-22T11:28:43;101292.63;;;3.36;100.00
19600;BME280;9947;57.722;12.012;2023-02-22T11:31:16;101286.31;;;3.61;100.00
19600;BME280;9947;57.722;12.012;2023-02-22T11:33:52;101299.03;;;3.78;100.00
19600;BME280;9947;57.722;12.012;2023-02-22T11:36:32;101285.34;;;3.63;100.00
19600;BME280;9947;57.722;12.012;2023-02-22T11:39:20;101296.25;;;3.10;100.00
19600;BME280;9947;57.722;12.012;2023-02-22T11:41:49;101298.03;;;3.35;100.00
19600;BME280;9947;57.722;12.012;2023-02-22T11:44:24;101293.91;;;3.50;100.00
19600;BME280;9947;57.722;12.012;2023-02-22T11:46:52;101293.16;;;3.91;100.00
19600;BME280;9947;57.722;12.012;2023-02-22T11:49:33;101296.59;;;3.50;100.00
19600;BME280;9947;57.722;12.012;2023-02-22T11:52:18;101289.91;;;3.83;100.00
19600;BME280;9947;57.722;12.012;2023-02-22T11:55:12;101295.94;;;3.43;100.00
19600;BME280;9947;57.722;12.012;2023-02-22T11:57:57;101288.75;;;3.45;100.00
19600;BME280;9947;57.722;12.012;2023-02-22T12:00:32;101280.97;;;3.61;100.00
19600;BME280;9947;57.722;12.012;2023-02-22T12:03:22;101283.31;;;3.70;100.00
19600;BME280;9947;57.722;12.012;2023-02-22T12:06:04;101285.34;;;3.63;100.00
19600;BME280;9947;57.722;12.012;2023-02-22T12:08:44;101285.13;;;3.91;100.00
19600;BME280;9947;57.722;12.012;2023-02-22T12:11:19;101293.38;;;3.85;100.00
19600;BME280;9947;57.722;12.012;2023-02-22T12:13:57;101290.03;;;3.80;100.00
19600;BME280;9947;57.722;12.012;2023-02-22T12:16:42;101285.44;;;4.06;100.00
19600;BME280;9947;57.722;12.012;2023-02-22T12:19:21;101281.25;;;4.20;100.00
19600;BME280;9947;57.722;12.012;2023-02-22T12:21:56;101271.84;;;4.10;100.00
19600;BME280;9947;57.722;12.012;2023-02-22T12:24:30;101264.63;;;4.12;100.00
19600;BME280;9947;57.722;12.012;2023-02-22T12:27:06;101267.47;;;4.29;100.00
19600;BME280;9947;57.722;12.012;2023-02-22T12:29:39;101270.13;;;4.09;100.00
19600;BME280;9947;57.722;12.012;2023-02-22T12:32:12;101261.91;;;4.14;100.00
19600;BME280;9947;57.722;12.012;2023-02-22T12:34:44;101270.09;;;4.31;100.00
19600;BME280;9947;57.722;12.012;2023-02-22T12:37:18;101265.69;;;4.30;100.00
19600;BME280;9947;57.722;12.012;2023-02-22T12:39:56;101257.72;;;4.28;100.00
19600;BME280;9947;57.722;12.012;2023-02-22T12:42:29;101257.59;;;4.10;100.00
19600;BME280;9947;57.722;12.012;2023-02-22T12:45:03;101256.66;;;3.90;100.00
19600;BME280;9947;57.722;12.012;2023-02-22T12:47:39;101259.22;;;4.14;100.00
19600;BME280;9947;57.722;12.012;2023-02-22T12:50:18;101251.03;;;4.18;100.00
19600;BME280;9947;57.722;12.012;2023-02-22T12:52:52;101253.69;;;4.18;100.00
19600;BME280;9947;57.722;12.012;2023-02-22T12:55:25;101251.19;;;4.14;100.00
19600;BME280;9947;57.722;12.012;2023-02-22T12:58:00;101253.53;;;4.01;100.00
19600;BME280;9947;57.722;12.012;2023-02-22T13:00:38;101253.84;;;4.36;100.00
19600;BME280;9947;57.722;12.012;2023-02-22T13:03:26;101256.00;;;4.06;100.00
19600;BME280;9947;57.722;12.012;2023-02-22T13:06:06;101251.28;;;4.32;100.00
19600;BME280;9947;57.722;12.012;2023-02-22T13:08:40;101260.72;;;4.41;100.00
19600;BME280;9947;57.722;12.012;2023-02-22T13:11:19;101260.00;;;4.38;100.00
19600;BME280;9947;57.722;12.012;2023-02-22T13:14:07;101244.94;;;4.35;100.00
19600;BME280;9947;57.722;12.012;2023-02-22T13:16:44;101249.72;;;4.49;100.00
19600;BME280;9947;57.722;12.012;2023-02-22T13:19:27;101258.75;;;4.46;100.00
19600;BME280;9947;57.722;12.012;2023-02-22T13:22:03;101251.25;;;4.12;100.00
19600;BME280;9947;57.722;12.012;2023-02-22T13:24:42;101245.56;;;3.99;100.00
19600;BME280;9947;57.722;12.012;2023-02-22T13:27:19;101244.94;;;3.93;100.00
19600;BME280;9947;57.722;12.012;2023-02-22T13:29:53;101247.56;;;3.94;100.00
19600;BME280;9947;57.722;12.012;2023-02-22T13:32:29;101243.69;;;4.01;100.00